Time;durP1;ratioP1;P1;durP2;ratioP2;P2;SDS_P1;SDS_P2;PMS_P1;PMS_P2;Temp;Humidity;BMP_temperature;BMP_pressure;BME280_temperature;BME280_humidity;BME280_pressure;Samples;Min_cycle;Max_cycle;Signal;HPM_P1;HPM_P2
2021/11/02 00:00:30;;;;;;;18.35;17.05;;;8.60;93.40;;;;;;5088259;28;20195;-74
2021/11/02 00:02:57;;;;;;;18.63;17.63;;;8.60;93.20;;;;;;5090382;28;20939;-74
2021/11/02 00:05:24;;;;;;;18.30;17.08;;;8.70;92.80;;;;;;5090192;28;20192;-74
2021/11/02 00:07:51;;;;;;;18.83;17.70;;;8.70;92.20;;;;;;5092215;28;20749;-73
2021/11/02 00:10:18;;;;;;;18.30;17.00;;;8.60;92.60;;;;;;5091110;28;20195;-73
2021/11/02 00:12:45;;;;;;;18.70;17.60;;;8.70;92.50;;;;;;5098400;28;20250;-72
2021/11/02 00:15:14;;;;;;;19.38;17.80;;;8.70;92.60;;;;;;5090938;28;20202;-72
2021/11/02 00:17:41;;;;;;;18.85;17.70;;;8.70;93.10;;;;;;5091595;28;20204;-73
2021/11/02 00:20:13;;;;;;;18.80;17.63;;;8.80;92.90;;;;;;5090072;28;20195;-73
2021/11/02 00:22:41;;;;;;;18.60;17.52;;;8.90;92.30;;;;;;5088586;28;20218;-72
2021/11/02 00:25:11;;;;;;;18.40;17.40;;;9.00;91.90;;;;;;5089452;28;20214;-73
2021/11/02 00:27:40;;;;;;;18.95;17.58;;;9.00;91.20;;;;;;5081857;28;20650;-73
2021/11/02 00:30:10;;;;;;;18.27;17.25;;;9.10;91.00;;;;;;5090330;28;20227;-74
2021/11/02 00:32:40;;;;;;;17.95;16.85;;;9.10;91.20;;;;;;5086818;28;20791;-72
2021/11/02 00:35:08;;;;;;;18.67;17.58;;;9.10;91.50;;;;;;5088771;28;20549;-73
2021/11/02 00:37:35;;;;;;;18.77;17.48;;;9.00;91.60;;;;;;5091459;28;20550;-73
2021/11/02 00:40:02;;;;;;;17.65;16.45;;;9.00;93.70;;;;;;5090259;28;20187;-73
2021/11/02 00:42:37;;;;;;;18.80;17.25;;;9.00;94.00;;;;;;5091283;28;20224;-73
2021/11/02 00:45:04;;;;;;;18.20;17.10;;;9.10;93.40;;;;;;5087017;28;20206;-73
2021/11/02 00:47:32;;;;;;;18.83;17.70;;;9.10;92.80;;;;;;5094088;28;20217;-73
2021/11/02 00:50:01;;;;;;;18.60;17.08;;;9.20;92.40;;;;;;5089237;28;20207;-73
2021/11/02 00:52:29;;;;;;;18.15;17.15;;;9.30;92.00;;;;;;5091189;28;20222;-73
2021/11/02 00:54:56;;;;;;;18.13;17.13;;;9.30;91.60;;;;;;5087869;28;20334;-74
2021/11/02 00:57:23;;;;;;;18.45;17.30;;;9.30;91.50;;;;;;5091143;28;20283;-74
2021/11/02 00:59:50;;;;;;;19.10;18.00;;;9.50;90.60;;;;;;5089763;28;20196;-74
2021/11/02 01:02:18;;;;;;;17.90;16.80;;;9.60;89.70;;;;;;5094308;28;20218;-74
2021/11/02 01:04:46;;;;;;;18.08;16.98;;;9.70;88.70;;;;;;5086920;28;20649;-74
2021/11/02 01:07:15;;;;;;;18.92;17.55;;;9.80;88.30;;;;;;5090999;28;20298;-74
2021/11/02 01:09:43;;;;;;;17.95;16.85;;;9.80;88.00;;;;;;5088316;28;20286;-74
2021/11/02 01:12:10;;;;;;;17.83;16.83;;;9.80;88.00;;;;;;5090432;28;20234;-74
2021/11/02 01:14:37;;;;;;;18.65;17.45;;;9.90;87.50;;;;;;5088961;28;20481;-75
2021/11/02 01:17:04;;;;;;;18.13;17.02;;;9.90;87.40;;;;;;5098430;28;20286;-74
2021/11/02 01:19:31;;;;;;;18.15;16.98;;;9.90;87.60;;;;;;5089196;28;20198;-74
2021/11/02 01:21:58;;;;;;;17.75;16.85;;;10.00;86.50;;;;;;5090756;28;20255;-74
2021/11/02 01:24:27;;;;;;;18.30;17.25;;;10.10;86.10;;;;;;5099395;28;20193;-75
2021/11/02 01:26:54;;;;;;;18.85;17.80;;;10.10;85.70;;;;;;5099189;28;20211;-75
2021/11/02 01:29:21;;;;;;;19.33;18.23;;;10.00;85.80;;;;;;5088564;28;20222;-75
2021/11/02 01:31:48;;;;;;;18.50;17.60;;;10.10;85.70;;;;;;5088965;28;20492;-75
2021/11/02 01:34:15;;;;;;;18.45;17.35;;;10.10;85.70;;;;;;5086566;28;20223;-74
2021/11/02 01:36:43;;;;;;;18.30;17.40;;;10.10;85.90;;;;;;5090801;28;20202;-73
2021/11/02 01:39:10;;;;;;;18.67;17.60;;;10.10;86.30;;;;;;5088361;28;20540;-73
2021/11/02 01:41:39;;;;;;;18.70;17.60;;;10.00;87.10;;;;;;5090234;28;20476;-73
2021/11/02 01:44:06;;;;;;;18.83;17.77;;;10.00;87.60;;;;;;5085588;27;20465;-73
2021/11/02 01:46:36;;;;;;;18.60;17.70;;;9.90;87.70;;;;;;5090452;28;20464;-73
2021/11/02 01:49:05;;;;;;;18.97;17.70;;;9.80;88.20;;;;;;5087253;28;20514;-73
2021/11/02 01:51:35;;;;;;;19.00;17.90;;;9.80;88.80;;;;;;5087583;28;20507;-73
2021/11/02 01:54:03;;;;;;;19.03;18.03;;;9.80;88.80;;;;;;5087082;28;21077;-73
2021/11/02 01:56:30;;;;;;;18.83;17.83;;;9.80;88.30;;;;;;5088691;28;20506;-73
2021/11/02 01:59:00;;;;;;;18.70;17.60;;;9.90;88.40;;;;;;5087699;28;20450;-73
2021/11/02 02:01:35;;;;;;;19.53;18.40;;;9.90;88.40;;;;;;5088500;28;20461;-73
2021/11/02 02:04:13;;;;;;;18.83;17.83;;;9.90;88.20;;;;;;5086817;28;20484;-73
2021/11/02 02:06:49;;;;;;;19.97;18.50;;;9.90;88.00;;;;;;5089809;28;20553;-73
2021/11/02 02:09:22;;;;;;;18.90;17.80;;;9.90;87.90;;;;;;5087683;28;20545;-73
2021/11/02 02:11:58;;;;;;;19.40;18.20;;;10.00;87.10;;;;;;5089733;28;20481;-73
2021/11/02 02:14:38;;;;;;;18.93;17.93;;;9.90;86.80;;;;;;5075626;28;20488;-73
2021/11/02 02:17:13;;;;;;;17.97;17.07;;;10.00;87.60;;;;;;5090266;28;20459;-75
2021/11/02 02:19:46;;;;;;;18.30;17.40;;;9.90;88.10;;;;;;5088015;28;20499;-74
2021/11/02 02:22:31;;;;;;;18.47;17.47;;;9.90;88.30;;;;;;5092455;28;20472;-74
2021/11/02 02:25:18;;;;;;;18.33;17.33;;;9.80;88.20;;;;;;5093144;28;20924;-74
2021/11/02 02:28:06;;;;;;;18.80;17.70;;;9.80;88.10;;;;;;5087572;28;20462;-75
2021/11/02 02:30:38;;;;;;;17.90;16.80;;;9.80;87.80;;;;;;5085532;28;20475;-74
2021/11/02 02:33:06;;;;;;;18.33;17.33;;;9.80;88.10;;;;;;5088837;28;20465;-75
2021/11/02 02:35:34;;;;;;;17.80;16.90;;;9.80;88.20;;;;;;5087246;28;20456;-74
2021/11/02 02:38:06;;;;;;;17.87;16.97;;;9.80;87.70;;;;;;5088793;28;20453;-75
2021/11/02 02:40:34;;;;;;;18.47;17.20;;;9.80;87.40;;;;;;5088237;28;21130;-74
2021/11/02 02:43:03;;;;;;;18.63;17.53;;;9.90;86.80;;;;;;5088482;28;20504;-74
2021/11/02 02:45:32;;;;;;;18.80;17.70;;;10.00;86.30;;;;;;5087108;28;20518;-75
2021/11/02 02:48:00;;;;;;;20.03;18.63;;;10.00;86.30;;;;;;5088256;28;20457;-74
2021/11/02 02:50:27;;;;;;;17.70;16.70;;;9.90;86.60;;;;;;5088381;28;20457;-75
2021/11/02 02:52:55;;;;;;;18.57;17.53;;;9.90;86.50;;;;;;5087930;28;20501;-75
2021/11/02 02:55:23;;;;;;;18.00;17.00;;;9.90;86.60;;;;;;5087395;28;20473;-75
2021/11/02 02:57:51;;;;;;;18.10;17.20;;;9.80;86.60;;;;;;5087723;28;20452;-74
2021/11/02 03:00:20;;;;;;;18.60;17.60;;;9.80;86.80;;;;;;5077214;28;20967;-74
2021/11/02 03:02:49;;;;;;;18.77;17.43;;;9.80;86.60;;;;;;5087170;28;20556;-75
2021/11/02 03:05:18;;;;;;;18.40;17.30;;;9.80;86.50;;;;;;5087019;28;20459;-75
2021/11/02 03:07:45;;;;;;;17.90;16.90;;;9.80;86.60;;;;;;5088771;28;20552;-74
2021/11/02 03:10:13;;;;;;;18.20;17.10;;;9.70;87.40;;;;;;5086676;28;20198;-74
2021/11/02 03:12:46;;;;;;;18.03;16.93;;;9.60;88.00;;;;;;5087675;28;20367;-75
2021/11/02 03:15:41;;;;;;;18.30;17.20;;;9.50;88.90;;;;;;5084221;28;20926;-75
2021/11/02 03:18:25;;;;;;;17.58;16.58;;;9.60;88.50;;;;;;5079542;28;20488;-75
2021/11/02 03:57:08;;;;;;;18.85;17.92;;;9.00;88.90;;;;;;5085904;28;20248;-72
2021/11/02 04:00:12;;;;;;;20.23;18.92;;;8.90;89.30;;;;;;5088435;28;20278;-73
2021/11/02 04:28:02;;;;;;;21.80;20.50;;;8.30;92.60;;;;;;5087259;28;20196;-75
2021/11/02 05:09:52;;;;;;;19.75;18.60;;;7.60;94.80;;;;;;5075184;28;20198;-73
2021/11/02 05:48:40;;;;;;;21.33;20.02;;;7.10;94.40;;;;;;5089824;28;20553;-73
2021/11/02 05:56:55;;;;;;;20.13;18.98;;;7.00;94.60;;;;;;5082415;28;20282;-71
2021/11/02 05:59:34;;;;;;;20.67;19.63;;;7.00;94.50;;;;;;5085338;28;20637;-72
2021/11/02 06:02:16;;;;;;;21.45;20.13;;;7.00;95.10;;;;;;5079404;28;20219;-72
2021/11/02 06:10:30;;;;;;;20.60;19.40;;;7.00;95.20;;;;;;5078382;28;20213;-72
2021/11/02 06:29:44;;;;;;;22.23;21.00;;;6.90;95.00;;;;;;5082583;28;20202;-73
2021/11/02 06:32:19;;;;;;;19.80;18.67;;;6.90;94.60;;;;;;5087378;28;20211;-71
2021/11/02 06:34:58;;;;;;;21.10;19.85;;;6.90;94.20;;;;;;5085187;28;20210;-71
2021/11/02 06:37:42;;;;;;;19.70;18.60;;;6.90;94.10;;;;;;5087949;28;20191;-72
2021/11/02 06:43:07;;;;;;;20.20;19.10;;;6.90;93.90;;;;;;5061603;28;20223;-71
2021/11/02 06:48:43;;;;;;;22.13;20.73;;;6.90;93.60;;;;;;5088382;28;20329;-72
2021/11/02 06:57:15;;;;;;;19.67;18.38;;;7.10;93.40;;;;;;5085763;28;20202;-71
2021/11/02 07:19:38;;;;;;;21.13;19.73;;;7.60;91.60;;;;;;5081440;28;20219;-72
2021/11/02 07:25:04;;;;;;;20.15;18.95;;;7.70;91.50;;;;;;5086305;28;20195;-73
2021/11/02 07:27:58;;;;;;;20.75;19.15;;;7.80;91.20;;;;;;5085672;28;20260;-71
2021/11/02 08:45:44;;;;;;;23.60;22.30;;;12.20;77.70;;;;;;5087077;28;20529;-72
2021/11/02 08:48:12;;;;;;;23.33;21.80;;;12.20;77.60;;;;;;5086885;28;20494;-73
2021/11/02 08:50:41;;;;;;;23.63;22.27;;;12.20;78.00;;;;;;5088818;28;20461;-72
2021/11/02 08:53:10;;;;;;;21.67;20.53;;;12.30;78.20;;;;;;5087102;28;20472;-73
2021/11/02 08:55:38;;;;;;;23.77;22.13;;;12.20;80.00;;;;;;5088709;28;20483;-73
2021/11/02 08:58:05;;;;;;;25.20;23.60;;;12.20;78.40;;;;;;5087945;28;20457;-73
2021/11/02 09:00:34;;;;;;;25.03;23.63;;;12.30;77.90;;;;;;5087584;28;20780;-73
2021/11/02 09:03:12;;;;;;;24.00;22.60;;;12.40;77.90;;;;;;5088119;28;21045;-73
2021/11/02 09:05:43;;;;;;;23.60;22.30;;;12.50;77.90;;;;;;5087255;28;20540;-73
2021/11/02 09:08:11;;;;;;;22.77;21.20;;;12.40;79.00;;;;;;5086605;28;20464;-71
2021/11/02 09:10:41;;;;;;;23.90;22.37;;;12.50;77.10;;;;;;5088059;28;20570;-71
2021/11/02 09:13:18;;;;;;;23.13;21.93;;;12.40;76.50;;;;;;5088944;28;20480;-72
2021/11/02 09:15:51;;;;;;;23.77;22.40;;;12.30;76.30;;;;;;5085278;28;20491;-72
2021/11/02 09:18:20;;;;;;;22.17;20.97;;;12.20;77.90;;;;;;5082126;28;20480;-73
2021/11/02 09:20:48;;;;;;;26.03;24.53;;;12.20;78.40;;;;;;5088322;28;20470;-72
2021/11/02 09:23:15;;;;;;;23.73;22.33;;;12.20;78.40;;;;;;5089986;28;20469;-71
2021/11/02 09:25:42;;;;;;;25.73;24.37;;;12.00;78.80;;;;;;5089585;28;20457;-71
2021/11/02 09:28:14;;;;;;;22.90;21.60;;;12.00;79.30;;;;;;5080195;28;20461;-72
2021/11/02 09:30:42;;;;;;;23.80;22.40;;;11.90;79.50;;;;;;5086694;28;21044;-71
2021/11/02 09:33:09;;;;;;;23.40;22.20;;;11.90;79.80;;;;;;5089311;28;20484;-72
2021/11/02 09:35:39;;;;;;;22.50;21.10;;;11.80;80.30;;;;;;5076023;28;20491;-72
2021/11/02 09:38:17;;;;;;;22.63;21.53;;;11.70;80.40;;;;;;5088718;28;20523;-72
2021/11/02 09:41:26;;;;;;;22.10;20.80;;;11.60;80.40;;;;;;5088112;28;20483;-72
2021/11/02 09:44:41;;;;;;;22.83;21.70;;;11.50;81.80;;;;;;5086508;28;20986;-72
2021/11/02 09:47:41;;;;;;;23.20;21.80;;;11.50;81.60;;;;;;5085828;28;20499;-72
2021/11/02 09:50:42;;;;;;;26.57;24.93;;;11.30;82.20;;;;;;5087472;28;20457;-72
2021/11/02 09:53:59;;;;;;;22.23;20.93;;;11.50;81.90;;;;;;5081390;28;20527;-72
2021/11/02 09:56:43;;;;;;;22.90;21.60;;;11.60;81.90;;;;;;5085030;28;20473;-72
2021/11/02 09:59:39;;;;;;;23.30;21.83;;;11.60;81.80;;;;;;5079372;28;20514;-72
2021/11/02 10:02:26;;;;;;;22.57;21.27;;;11.60;81.70;;;;;;5083979;28;20558;-71
2021/11/02 10:05:12;;;;;;;21.47;20.17;;;11.50;82.00;;;;;;5084799;28;20966;-71
2021/11/02 10:08:05;;;;;;;25.07;23.60;;;11.70;81.30;;;;;;5088543;28;20449;-71
2021/11/02 10:11:01;;;;;;;23.20;22.00;;;11.70;81.40;;;;;;5084039;28;20495;-71
2021/11/02 10:14:01;;;;;;;22.23;21.03;;;11.80;81.90;;;;;;5086363;28;20579;-71
2021/11/02 10:16:44;;;;;;;24.10;22.90;;;11.80;81.80;;;;;;5079007;28;20473;-71
2021/11/02 10:19:41;;;;;;;21.97;20.53;;;11.70;82.00;;;;;;5084996;28;20457;-72
2021/11/02 10:22:26;;;;;;;22.37;21.07;;;11.70;82.90;;;;;;5081527;28;20570;-71
2021/11/02 10:25:10;;;;;;;22.60;21.20;;;11.70;82.30;;;;;;5083078;28;20458;-71
2021/11/02 10:28:06;;;;;;;24.07;22.30;;;11.60;83.70;;;;;;5086243;28;20464;-71
2021/11/02 10:30:47;;;;;;;25.53;24.03;;;11.50;84.40;;;;;;5075293;28;20536;-73
2021/11/02 10:33:20;;;;;;;24.83;23.23;;;11.60;85.00;;;;;;5079820;28;20580;-72
2021/11/02 10:36:17;;;;;;;22.67;21.47;;;11.60;83.80;;;;;;5081488;28;23158;-72
2021/11/02 10:39:06;;;;;;;24.17;22.77;;;11.60;83.70;;;;;;5082386;28;20816;-72
2021/11/02 10:41:44;;;;;;;23.00;21.60;;;11.70;83.80;;;;;;5082547;28;20473;-73
2021/11/02 10:44:21;;;;;;;23.90;22.50;;;11.80;83.20;;;;;;5080938;28;20976;-71
2021/11/02 10:47:00;;;;;;;22.40;21.20;;;11.70;83.10;;;;;;5088634;28;20453;-71
2021/11/02 10:49:31;;;;;;;24.47;23.07;;;11.80;83.20;;;;;;5085674;28;20464;-71
2021/11/02 10:52:03;;;;;;;23.30;22.00;;;11.80;83.50;;;;;;5084955;28;20824;-70
2021/11/02 10:54:53;;;;;;;23.07;21.57;;;11.70;83.20;;;;;;5084792;28;20841;-72
2021/11/02 10:57:35;;;;;;;23.47;22.17;;;11.70;84.10;;;;;;5091160;28;20452;-73
2021/11/02 11:00:05;;;;;;;22.50;21.30;;;11.80;84.00;;;;;;5082610;28;20551;-72
2021/11/02 11:02:33;;;;;;;22.63;21.37;;;11.90;83.20;;;;;;5080148;28;21136;-72
2021/11/02 11:05:01;;;;;;;22.37;21.07;;;11.90;83.20;;;;;;5083035;28;20445;-72
2021/11/02 11:07:29;;;;;;;23.60;22.30;;;12.00;82.70;;;;;;5088035;28;20549;-72
2021/11/02 11:09:56;;;;;;;22.47;21.20;;;12.00;82.60;;;;;;5085222;28;20453;-72
2021/11/02 11:12:23;;;;;;;22.93;21.53;;;12.10;82.30;;;;;;5088655;28;20994;-73
2021/11/02 11:14:55;;;;;;;23.50;22.03;;;12.10;81.80;;;;;;5085721;28;20973;-72
2021/11/02 11:17:28;;;;;;;23.90;22.60;;;12.00;82.30;;;;;;5086959;28;20514;-72
2021/11/02 11:20:07;;;;;;;22.90;21.60;;;12.10;82.70;;;;;;5082723;28;20844;-72
2021/11/02 11:22:39;;;;;;;22.10;20.70;;;12.10;82.80;;;;;;5083285;28;20481;-71
2021/11/02 11:25:10;;;;;;;21.27;20.17;;;12.00;82.50;;;;;;5081017;28;20441;-72
2021/11/02 11:27:48;;;;;;;23.83;22.43;;;12.20;82.50;;;;;;5095240;28;21006;-72
2021/11/02 11:30:17;;;;;;;21.50;20.20;;;12.20;82.40;;;;;;5075448;28;20462;-72
2021/11/02 11:32:47;;;;;;;22.40;21.20;;;12.30;81.80;;;;;;5084094;28;21248;-72
2021/11/02 11:35:16;;;;;;;22.10;21.00;;;12.40;81.20;;;;;;5079903;28;20497;-72
2021/11/02 11:37:44;;;;;;;24.23;22.83;;;12.50;81.00;;;;;;5084490;28;20556;-71
2021/11/02 11:40:14;;;;;;;22.03;20.83;;;12.70;80.40;;;;;;5087438;28;21019;-72
2021/11/02 11:42:46;;;;;;;22.00;20.80;;;12.90;79.80;;;;;;5081497;28;21026;-71
2021/11/02 11:45:18;;;;;;;21.73;20.53;;;13.10;79.20;;;;;;5082036;28;21022;-72
2021/11/02 11:47:46;;;;;;;22.40;21.20;;;13.20;80.90;;;;;;5081782;28;20453;-71
2021/11/02 11:50:17;;;;;;;23.87;22.47;;;13.50;78.80;;;;;;5086965;28;20453;-71
2021/11/02 11:52:46;;;;;;;24.03;22.40;;;13.80;77.20;;;;;;5083179;28;21004;-71
2021/11/02 11:55:20;;;;;;;23.80;22.40;;;13.80;76.60;;;;;;5086861;28;20485;-71
2021/11/02 11:58:11;;;;;;;23.63;22.30;;;14.00;76.10;;;;;;5089700;28;20453;-71
2021/11/02 12:00:41;;;;;;;24.40;23.10;;;14.20;75.80;;;;;;5067583;28;20461;-73
2021/11/02 12:03:17;;;;;;;23.97;22.67;;;14.10;77.30;;;;;;5086347;28;20473;-71
2021/11/02 12:05:49;;;;;;;25.23;23.83;;;14.20;75.40;;;;;;5086035;28;20465;-71
2021/11/02 12:08:22;;;;;;;23.87;22.57;;;14.10;74.20;;;;;;5091731;28;21238;-71
2021/11/02 12:10:52;;;;;;;24.73;23.43;;;14.00;75.40;;;;;;5085917;28;20468;-70
2021/11/02 12:13:20;;;;;;;23.30;22.10;;;14.00;76.00;;;;;;5090706;28;20575;-71
2021/11/02 12:16:08;;;;;;;23.07;21.97;;;13.80;76.30;;;;;;5089006;28;20479;-71
2021/11/02 12:18:37;;;;;;;25.03;23.73;;;13.70;74.90;;;;;;5084234;28;20453;-70
2021/11/02 12:21:08;;;;;;;22.70;21.60;;;13.60;76.40;;;;;;5091455;28;20459;-71
2021/11/02 12:23:39;;;;;;;25.23;23.93;;;13.40;76.10;;;;;;5089128;28;20564;-71
2021/11/02 12:26:07;;;;;;;23.20;22.00;;;13.20;77.20;;;;;;5091574;28;20465;-71
2021/11/02 12:28:36;;;;;;;22.90;21.70;;;13.10;77.30;;;;;;5090194;28;20873;-72
2021/11/02 12:31:04;;;;;;;23.70;22.50;;;13.00;77.30;;;;;;5091151;28;20445;-71
2021/11/02 12:33:34;;;;;;;22.73;21.50;;;13.00;77.90;;;;;;5088213;28;20473;-71
2021/11/02 12:36:03;;;;;;;26.67;25.40;;;12.90;77.90;;;;;;5086054;28;20477;-72
2021/11/02 12:38:34;;;;;;;22.13;21.03;;;13.00;77.80;;;;;;5091378;28;20485;-71
2021/11/02 12:41:02;;;;;;;24.03;22.73;;;13.10;77.00;;;;;;5090820;28;20465;-72
2021/11/02 12:43:30;;;;;;;24.50;23.30;;;13.10;77.60;;;;;;5086994;28;20475;-71
2021/11/02 12:46:00;;;;;;;22.97;21.67;;;13.10;76.60;;;;;;5092097;28;20490;-71
2021/11/02 12:48:28;;;;;;;23.47;22.27;;;13.00;77.20;;;;;;5096507;28;20946;-71
2021/11/02 12:50:58;;;;;;;24.07;22.70;;;13.20;77.00;;;;;;5089648;28;20475;-72
2021/11/02 12:53:26;;;;;;;23.90;22.53;;;13.30;76.30;;;;;;5088582;28;21016;-72
2021/11/02 12:55:58;;;;;;;22.30;21.10;;;13.30;77.40;;;;;;5090138;28;20473;-71
2021/11/02 12:58:26;;;;;;;25.97;24.47;;;13.30;75.70;;;;;;5098068;28;20457;-71
2021/11/02 13:00:58;;;;;;;23.63;22.33;;;13.40;75.30;;;;;;5087813;28;20452;-72
2021/11/02 13:03:34;;;;;;;25.13;23.63;;;13.50;73.40;;;;;;5088105;28;20477;-71
2021/11/02 13:06:06;;;;;;;25.20;23.80;;;13.60;73.50;;;;;;5092067;27;20460;-72
2021/11/02 13:08:41;;;;;;;25.17;23.80;;;13.80;73.10;;;;;;5090955;28;20958;-72
2021/11/02 13:11:11;;;;;;;23.90;22.50;;;13.90;71.90;;;;;;5086384;28;20529;-72
2021/11/02 13:13:57;;;;;;;24.60;23.30;;;13.90;71.30;;;;;;5089300;28;20576;-71
2021/11/02 13:16:25;;;;;;;24.83;23.43;;;14.00;70.80;;;;;;5084840;28;20476;-74
2021/11/02 13:18:52;;;;;;;23.77;22.57;;;13.80;70.30;;;;;;5086522;28;20467;-71
2021/11/02 13:21:28;;;;;;;24.80;23.50;;;13.60;71.20;;;;;;5085424;28;20451;-72
2021/11/02 13:23:59;;;;;;;25.63;24.23;;;13.40;72.00;;;;;;5079685;28;20556;-71
2021/11/02 13:26:29;;;;;;;26.60;25.20;;;13.10;72.80;;;;;;5083079;28;20960;-70
2021/11/02 13:29:13;;;;;;;25.80;24.30;;;13.10;73.10;;;;;;5084394;28;20545;-70
2021/11/02 13:31:41;;;;;;;26.07;24.47;;;13.10;73.40;;;;;;5090192;28;20476;-71
2021/11/02 13:34:10;;;;;;;24.87;23.47;;;13.00;72.90;;;;;;5086204;28;20461;-70
2021/11/02 13:36:38;;;;;;;26.80;24.80;;;12.90;73.20;;;;;;5079059;28;20488;-71
2021/11/02 13:39:06;;;;;;;24.33;22.97;;;12.80;72.30;;;;;;5087397;28;20531;-71
2021/11/02 13:41:36;;;;;;;24.80;23.40;;;12.60;72.80;;;;;;5089845;28;20477;-73
2021/11/02 13:44:05;;;;;;;24.33;23.00;;;12.40;74.20;;;;;;5088010;28;20552;-73
2021/11/02 13:46:35;;;;;;;25.00;23.60;;;12.30;75.00;;;;;;5096329;28;20441;-73
2021/11/02 13:49:03;;;;;;;22.97;21.77;;;12.30;75.30;;;;;;5085727;27;20465;-73
2021/11/02 13:51:30;;;;;;;24.00;22.60;;;12.40;75.70;;;;;;5089682;28;20467;-73
2021/11/02 13:53:57;;;;;;;22.90;21.70;;;12.60;75.20;;;;;;5085105;28;20457;-73
2021/11/02 13:56:26;;;;;;;25.83;24.57;;;12.50;74.80;;;;;;5095867;28;20471;-73
2021/11/02 13:58:56;;;;;;;23.77;22.47;;;12.50;74.50;;;;;;5092357;28;20549;-73
2021/11/02 14:01:27;;;;;;;24.10;22.80;;;12.50;73.80;;;;;;5088077;28;21188;-71
2021/11/02 14:04:00;;;;;;;23.03;21.83;;;12.50;73.60;;;;;;5086283;28;20464;-71
2021/11/02 14:06:29;;;;;;;24.57;23.27;;;12.50;73.60;;;;;;5088604;28;22413;-71
2021/11/02 14:08:57;;;;;;;23.30;22.10;;;12.50;74.00;;;;;;5086481;28;20931;-71
2021/11/02 14:11:30;;;;;;;23.93;22.73;;;12.50;73.40;;;;;;5087417;28;21039;-71
2021/11/02 14:13:59;;;;;;;23.40;22.17;;;12.70;73.20;;;;;;5086023;28;20449;-72
2021/11/02 14:16:32;;;;;;;28.30;26.50;;;12.80;72.10;;;;;;5091039;28;20576;-73
2021/11/02 14:18:59;;;;;;;23.67;22.37;;;13.00;72.10;;;;;;5085429;28;20972;-73
2021/11/02 14:21:48;;;;;;;24.67;23.30;;;13.10;72.10;;;;;;5088994;28;20454;-73
2021/11/02 14:24:16;;;;;;;25.07;23.87;;;13.20;71.70;;;;;;5084106;28;20512;-73
2021/11/02 14:26:48;;;;;;;24.00;22.80;;;13.20;70.80;;;;;;5086732;28;20448;-74
2021/11/02 14:29:18;;;;;;;23.40;22.20;;;13.20;70.50;;;;;;5081891;28;20879;-73
2021/11/02 14:31:49;;;;;;;25.07;23.77;;;13.30;70.10;;;;;;5077171;28;20838;-73
2021/11/02 14:34:48;;;;;;;23.40;22.20;;;13.10;70.30;;;;;;5084840;28;20452;-73
2021/11/02 14:37:24;;;;;;;23.33;22.23;;;13.10;70.50;;;;;;5083182;28;20973;-74
2021/11/02 14:39:57;;;;;;;25.27;23.97;;;12.90;70.10;;;;;;5084947;28;20449;-75
2021/11/02 14:42:42;;;;;;;23.50;22.30;;;12.80;71.50;;;;;;5086918;28;20477;-73
2021/11/02 14:45:11;;;;;;;26.43;25.23;;;12.80;71.50;;;;;;5082983;28;20465;-74
2021/11/02 14:47:39;;;;;;;22.77;21.57;;;12.80;71.90;;;;;;5089558;28;20445;-74
2021/11/02 14:50:36;;;;;;;23.03;21.90;;;12.70;71.00;;;;;;5085864;28;20454;-72
2021/11/02 14:53:14;;;;;;;25.17;23.90;;;12.60;71.40;;;;;;5086195;28;21020;-69
2021/11/02 14:55:53;;;;;;;24.40;23.20;;;12.50;72.00;;;;;;5084802;28;20544;-71
2021/11/02 14:58:42;;;;;;;24.70;23.40;;;12.50;72.30;;;;;;5083410;28;20453;-70
2021/11/02 15:01:12;;;;;;;27.30;25.90;;;12.50;72.80;;;;;;5085645;28;20453;-69
2021/11/02 15:03:40;;;;;;;25.60;24.40;;;12.40;73.10;;;;;;5084514;28;20495;-68
2021/11/02 15:06:09;;;;;;;22.87;21.67;;;12.30;73.80;;;;;;5083314;28;20540;-69
2021/11/02 15:08:38;;;;;;;23.80;22.60;;;12.20;74.20;;;;;;5086237;28;20489;-68
2021/11/02 15:11:10;;;;;;;23.50;22.30;;;12.10;74.50;;;;;;5086815;28;20962;-68
2021/11/02 15:13:39;;;;;;;23.80;22.37;;;11.90;75.00;;;;;;5084056;27;20505;-69
2021/11/02 15:16:06;;;;;;;23.97;22.67;;;12.00;75.20;;;;;;5086961;28;20451;-72
2021/11/02 15:18:38;;;;;;;24.70;23.40;;;11.90;74.70;;;;;;5082886;28;21030;-70
2021/11/02 15:21:05;;;;;;;23.17;21.97;;;12.00;74.30;;;;;;5083200;28;20457;-72
2021/11/02 15:23:47;;;;;;;23.23;22.03;;;11.90;74.10;;;;;;5081191;28;20979;-72
2021/11/02 15:26:15;;;;;;;23.33;22.13;;;11.70;74.70;;;;;;5081841;28;20465;-72
2021/11/02 15:28:45;;;;;;;24.80;23.40;;;11.60;74.60;;;;;;5084416;28;20547;-72
2021/11/02 15:31:14;;;;;;;24.37;23.17;;;11.60;75.10;;;;;;5089830;28;20536;-72
2021/11/02 15:33:43;;;;;;;24.50;23.20;;;11.50;76.00;;;;;;5088653;28;20536;-72
2021/11/02 15:36:21;;;;;;;23.10;21.83;;;11.40;77.10;;;;;;5088706;28;20461;-74
2021/11/02 15:38:58;;;;;;;23.90;22.70;;;11.40;77.70;;;;;;5087846;28;20578;-75
2021/11/02 15:41:26;;;;;;;23.27;22.07;;;11.30;78.20;;;;;;5090490;28;20460;-76
2021/11/02 15:43:57;;;;;;;22.17;21.07;;;11.10;79.60;;;;;;5089458;28;20460;-77
2021/11/02 15:46:25;;;;;;;21.50;20.50;;;11.10;80.30;;;;;;5091965;28;20457;-76
2021/11/02 15:48:56;;;;;;;21.90;20.80;;;11.00;80.20;;;;;;5089060;28;20598;-76
2021/11/02 15:51:24;;;;;;;22.63;21.47;;;10.80;80.30;;;;;;5091160;28;20449;-75
2021/11/02 15:53:52;;;;;;;21.60;20.60;;;10.70;81.00;;;;;;5092432;28;20454;-76
2021/11/02 15:56:24;;;;;;;21.90;20.87;;;10.60;81.20;;;;;;5089284;28;20847;-75
2021/11/02 15:58:57;;;;;;;20.60;19.60;;;10.60;81.60;;;;;;5088557;28;20555;-74
2021/11/02 16:01:35;;;;;;;22.30;21.20;;;10.50;82.10;;;;;;5088118;28;21140;-72
2021/11/02 16:04:19;;;;;;;21.43;20.43;;;10.60;82.00;;;;;;5088350;28;20465;-74
2021/11/02 16:07:08;;;;;;;22.57;21.37;;;10.40;84.20;;;;;;5089269;28;20536;-74
2021/11/02 16:09:53;;;;;;;23.63;22.53;;;10.30;83.20;;;;;;5086060;28;21084;-73
2021/11/02 16:12:25;;;;;;;22.80;21.60;;;10.30;82.70;;;;;;5085373;28;20480;-71
2021/11/02 16:14:53;;;;;;;21.60;20.60;;;10.30;82.20;;;;;;5086821;28;20489;-72
2021/11/02 16:17:22;;;;;;;20.93;19.83;;;10.20;82.40;;;;;;5091796;28;20561;-72
2021/11/02 16:19:52;;;;;;;22.10;20.90;;;10.20;82.70;;;;;;5088982;28;20544;-73
2021/11/02 16:22:20;;;;;;;21.53;20.53;;;10.10;83.30;;;;;;5089823;28;20479;-72
2021/11/02 16:25:00;;;;;;;21.83;20.73;;;10.10;83.50;;;;;;5087130;28;20480;-72
2021/11/02 16:27:27;;;;;;;23.27;21.97;;;10.10;83.20;;;;;;5089364;28;20463;-72
2021/11/02 16:29:54;;;;;;;22.27;21.17;;;10.10;83.50;;;;;;5089073;28;20537;-72
2021/11/02 16:32:23;;;;;;;20.50;19.50;;;10.00;83.80;;;;;;5089171;28;20538;-72
2021/11/02 16:34:51;;;;;;;19.93;18.93;;;10.10;83.70;;;;;;5086866;28;20484;-72
2021/11/02 16:37:32;;;;;;;20.83;19.73;;;10.10;83.60;;;;;;5090542;28;21290;-72
2021/11/02 16:40:24;;;;;;;20.30;19.40;;;10.20;83.50;;;;;;5088442;28;20829;-71
2021/11/02 16:42:57;;;;;;;20.30;19.30;;;10.20;83.80;;;;;;5086477;28;20473;-71
2021/11/02 16:45:25;;;;;;;20.67;19.60;;;10.10;84.00;;;;;;5088762;28;20456;-72
2021/11/02 16:47:56;;;;;;;19.93;18.93;;;10.20;84.20;;;;;;5090703;28;20467;-73
2021/11/02 16:50:29;;;;;;;19.40;18.47;;;10.30;84.40;;;;;;5087751;28;20463;-72
2021/11/02 16:53:12;;;;;;;20.27;19.17;;;10.30;84.20;;;;;;5089237;28;20827;-72
2021/11/02 16:55:41;;;;;;;19.37;18.37;;;10.30;85.00;;;;;;5088558;28;20457;-72
2021/11/02 16:58:27;;;;;;;20.23;18.90;;;10.20;86.10;;;;;;5091256;28;20498;-72
2021/11/02 17:01:20;;;;;;;19.80;18.80;;;10.10;86.60;;;;;;5087904;28;20474;-72
2021/11/02 17:03:47;;;;;;;18.30;17.40;;;10.00;86.50;;;;;;5086451;28;20445;-73
2021/11/02 17:06:18;;;;;;;18.03;17.13;;;9.90;88.50;;;;;;5088882;28;20461;-72
2021/11/02 17:09:20;;;;;;;18.13;17.13;;;9.90;88.00;;;;;;5087313;28;20546;-72
2021/11/02 17:11:58;;;;;;;18.87;17.87;;;9.90;88.00;;;;;;5077691;28;21009;-71
2021/11/02 17:14:27;;;;;;;19.70;18.67;;;9.80;88.40;;;;;;5083490;28;20457;-71
2021/11/02 17:16:59;;;;;;;19.50;18.50;;;9.80;88.50;;;;;;5091998;28;20452;-71
2021/11/02 17:19:27;;;;;;;20.77;19.77;;;9.70;88.90;;;;;;5084873;28;20458;-71
2021/11/02 17:21:57;;;;;;;20.13;18.83;;;9.70;90.20;;;;;;5086023;28;20949;-72
2021/11/02 17:24:26;;;;;;;20.60;19.40;;;9.70;90.20;;;;;;5086174;28;20963;-72
2021/11/02 17:26:53;;;;;;;20.87;19.77;;;9.60;90.10;;;;;;5081770;28;20449;-70
2021/11/02 17:29:20;;;;;;;18.73;17.63;;;9.50;90.30;;;;;;5086885;28;20480;-70
2021/11/02 17:31:48;;;;;;;21.60;20.33;;;9.50;90.20;;;;;;5086899;28;20249;-71
2021/11/02 17:34:23;;;;;;;22.17;20.87;;;9.40;90.40;;;;;;5087181;28;20458;-71
2021/11/02 17:37:00;;;;;;;22.60;20.90;;;9.40;90.90;;;;;;5088904;28;20866;-70